Time;durP1;ratioP1;P1;durP2;ratioP2;P2;SDS_P1;SDS_P2;PMS_P1;PMS_P2;Temp;Humidity;BMP_temperature;BMP_pressure;BME280_temperature;BME280_humidity;BME280_pressure;Samples;Min_cycle;Max_cycle;Signal;HPM_P1;HPM_P2
2024/02/01 00:00:41;;;;;;;7.93;3.07;;;9.30;99.90;;;;;;5031622;28;20485;-70
2024/02/01 00:03:27;;;;;;;4.80;3.53;;;9.30;99.90;;;;;;5028839;28;20851;-70
2024/02/01 00:06:13;;;;;;;5.70;3.23;;;9.30;99.90;;;;;;5024156;28;20531;-70
2024/02/01 00:08:58;;;;;;;7.50;3.17;;;9.30;99.90;;;;;;5037274;28;20490;-70
2024/02/01 00:11:44;;;;;;;6.67;3.73;;;9.30;99.90;;;;;;5039629;28;20843;-70
2024/02/01 00:14:30;;;;;;;5.17;3.23;;;9.30;99.90;;;;;;5032226;28;20506;-70
2024/02/01 00:17:17;;;;;;;5.47;3.17;;;9.30;99.90;;;;;;5031720;28;20778;-70
2024/02/01 00:20:03;;;;;;;4.50;2.83;;;9.30;99.90;;;;;;5032576;28;20549;-70
2024/02/01 00:22:48;;;;;;;4.00;3.10;;;9.20;99.90;;;;;;5041599;28;20570;-70
2024/02/01 00:25:34;;;;;;;7.83;3.20;;;9.20;99.90;;;;;;5026879;28;20542;-70
2024/02/01 00:28:20;;;;;;;3.40;2.37;;;9.20;99.90;;;;;;5031613;28;20467;-69
2024/02/01 00:31:05;;;;;;;3.93;3.23;;;9.20;99.90;;;;;;5031615;28;20475;-70
2024/02/01 00:33:53;;;;;;;5.97;3.17;;;9.30;99.90;;;;;;5032239;28;20427;-70
2024/02/01 00:36:39;;;;;;;4.70;3.50;;;9.20;99.90;;;;;;5032612;28;20427;-69
2024/02/01 00:39:24;;;;;;;4.30;2.97;;;9.30;99.90;;;;;;5029977;28;20429;-70
2024/02/01 00:42:10;;;;;;;4.77;3.47;;;9.20;99.90;;;;;;5026424;28;20398;-70
2024/02/01 00:44:56;;;;;;;4.40;2.80;;;9.30;99.90;;;;;;5025105;28;20566;-70
2024/02/01 00:47:41;;;;;;;7.67;3.43;;;9.30;99.90;;;;;;5030636;28;20522;-70
2024/02/01 00:50:29;;;;;;;6.47;4.03;;;9.30;99.90;;;;;;5031414;28;20421;-70
2024/02/01 00:53:14;;;;;;;4.47;2.90;;;9.30;99.90;;;;;;5033160;28;20798;-70
2024/02/01 00:56:00;;;;;;;4.03;3.10;;;9.30;99.90;;;;;;5033133;28;20500;-70
2024/02/01 00:58:45;;;;;;;6.90;3.83;;;9.30;99.90;;;;;;5026670;28;20462;-70
2024/02/01 01:01:31;;;;;;;5.43;3.00;;;9.30;99.90;;;;;;5033774;28;20443;-70
2024/02/01 01:04:17;;;;;;;6.47;2.83;;;9.40;99.90;;;;;;5033089;28;20950;-70
2024/02/01 01:07:04;;;;;;;4.33;2.83;;;9.30;99.90;;;;;;5033611;28;20444;-70
2024/02/01 01:09:52;;;;;;;4.83;3.30;;;9.40;99.90;;;;;;5033881;28;20467;-70
2024/02/01 01:12:37;;;;;;;13.00;4.07;;;9.40;99.90;;;;;;5038532;28;20450;-70
2024/02/01 01:15:23;;;;;;;7.30;3.80;;;9.30;99.90;;;;;;5035306;28;20429;-70
2024/02/01 01:18:08;;;;;;;6.60;3.83;;;9.30;99.90;;;;;;5035358;28;20473;-70
2024/02/01 01:20:56;;;;;;;4.83;2.97;;;9.30;99.90;;;;;;5029558;28;20478;-69
2024/02/01 01:23:43;;;;;;;5.63;3.63;;;9.30;99.90;;;;;;5045233;28;20588;-70
2024/02/01 01:26:28;;;;;;;5.70;3.43;;;9.30;99.90;;;;;;5034353;28;20444;-70
2024/02/01 01:29:14;;;;;;;3.80;3.10;;;9.30;99.90;;;;;;5026989;28;20478;-70
2024/02/01 01:31:59;;;;;;;5.00;3.40;;;9.30;99.90;;;;;;5035928;28;20503;-70
2024/02/01 01:34:45;;;;;;;6.40;3.27;;;9.30;99.90;;;;;;5033707;28;20583;-70
2024/02/01 01:37:32;;;;;;;4.60;3.60;;;9.30;99.90;;;;;;5034950;28;20455;-70
2024/02/01 01:40:19;;;;;;;4.83;3.23;;;9.30;99.90;;;;;;5072284;22;20492;-71
2024/02/01 01:43:05;;;;;;;6.13;3.97;;;9.40;99.90;;;;;;5079027;28;20453;-74
2024/02/01 01:46:01;;;;;;;11.63;3.57;;;9.40;99.90;;;;;;5070950;28;20464;-73
2024/02/01 01:48:47;;;;;;;5.80;3.30;;;9.40;99.90;;;;;;5064195;28;20473;-71
2024/02/01 01:51:34;;;;;;;5.00;3.50;;;9.50;99.90;;;;;;5073191;28;20542;-74
2024/02/01 01:54:22;;;;;;;5.30;3.30;;;9.40;99.90;;;;;;5071792;28;20425;-73
2024/02/01 01:57:10;;;;;;;6.07;3.40;;;9.40;99.90;;;;;;5071074;28;20461;-73
2024/02/01 01:59:57;;;;;;;6.63;3.80;;;9.40;99.90;;;;;;5080197;28;20467;-73
2024/02/01 02:02:44;;;;;;;6.33;3.50;;;9.30;99.90;;;;;;5074428;28;20428;-74
2024/02/01 02:05:29;;;;;;;5.73;3.87;;;9.30;99.90;;;;;;5082605;28;20435;-73
2024/02/01 02:08:15;;;;;;;5.23;3.07;;;9.40;99.90;;;;;;5063455;28;20420;-72
2024/02/01 02:11:00;;;;;;;12.10;3.60;;;9.40;99.90;;;;;;5073639;28;20453;-73
2024/02/01 02:13:51;;;;;;;6.03;3.00;;;9.40;99.90;;;;;;5077406;28;20443;-73
2024/02/01 02:16:37;;;;;;;5.63;3.23;;;9.40;99.90;;;;;;5072898;28;20505;-73
2024/02/01 02:19:22;;;;;;;4.70;3.33;;;9.50;99.90;;;;;;5078121;28;20591;-72
2024/02/01 02:22:12;;;;;;;10.07;4.53;;;9.50;99.90;;;;;;5067953;28;20450;-73
2024/02/01 02:24:58;;;;;;;5.23;3.30;;;9.50;99.90;;;;;;5074014;28;20939;-73
2024/02/01 02:27:44;;;;;;;5.70;3.13;;;9.50;99.90;;;;;;5076902;28;20451;-73
2024/02/01 02:30:29;;;;;;;6.10;4.37;;;9.40;99.90;;;;;;5073504;28;20707;-73
2024/02/01 02:33:15;;;;;;;4.10;3.30;;;9.40;99.90;;;;;;5075686;28;20473;-72
2024/02/01 02:36:01;;;;;;;3.67;3.00;;;9.40;99.90;;;;;;5065042;28;20530;-72
2024/02/01 02:38:48;;;;;;;6.33;3.37;;;9.40;99.90;;;;;;5073155;28;20529;-73
2024/02/01 02:41:33;;;;;;;4.10;2.73;;;9.40;99.90;;;;;;5067995;28;20605;-73
2024/02/01 02:44:19;;;;;;;4.97;2.70;;;9.40;99.90;;;;;;5067211;28;20466;-73
2024/02/01 02:47:05;;;;;;;3.97;2.67;;;9.50;99.90;;;;;;5078018;28;20434;-73
2024/02/01 02:49:51;;;;;;;4.83;2.63;;;9.40;99.90;;;;;;5069205;28;20594;-73
2024/02/01 02:52:38;;;;;;;4.20;2.63;;;9.50;99.90;;;;;;5076500;28;20516;-73
2024/02/01 02:55:25;;;;;;;5.87;3.13;;;9.60;99.90;;;;;;5068038;28;20495;-73
2024/02/01 02:58:10;;;;;;;3.80;2.70;;;9.50;99.90;;;;;;5057086;28;20617;-73
2024/02/01 03:00:56;;;;;;;3.90;2.60;;;9.50;99.90;;;;;;5073395;28;20464;-73
2024/02/01 03:03:42;;;;;;;4.77;3.40;;;9.50;99.90;;;;;;5079908;28;20452;-73
2024/02/01 03:06:27;;;;;;;5.17;3.67;;;9.60;99.90;;;;;;5073723;28;20656;-73
2024/02/01 03:09:16;;;;;;;5.07;3.30;;;9.60;99.90;;;;;;5062509;28;20609;-73
2024/02/01 03:12:06;;;;;;;14.80;3.60;;;9.60;99.90;;;;;;5075792;28;20452;-72
2024/02/01 03:14:53;;;;;;;6.17;3.47;;;9.60;99.90;;;;;;5077365;28;20445;-73
2024/02/01 03:17:40;;;;;;;6.53;3.47;;;9.50;99.90;;;;;;5072666;28;20441;-72
2024/02/01 03:20:26;;;;;;;6.70;3.50;;;9.50;99.90;;;;;;5075049;28;20531;-72
2024/02/01 03:23:12;;;;;;;4.30;3.00;;;9.40;99.90;;;;;;5064322;28;20498;-73
2024/02/01 03:25:58;;;;;;;7.07;3.80;;;9.40;99.90;;;;;;5067529;28;20861;-73
2024/02/01 03:28:47;;;;;;;3.70;2.87;;;9.40;99.90;;;;;;5084558;28;21554;-73
2024/02/01 03:31:34;;;;;;;5.53;3.27;;;9.30;99.90;;;;;;5077757;28;20523;-72
2024/02/01 03:34:21;;;;;;;5.63;3.60;;;9.30;99.90;;;;;;5067166;28;20961;-73
2024/02/01 03:37:07;;;;;;;7.33;4.60;;;9.20;99.90;;;;;;5068885;28;20454;-73
2024/02/01 03:39:52;;;;;;;6.17;4.03;;;9.20;99.90;;;;;;5072909;28;20532;-72
2024/02/01 03:42:38;;;;;;;5.63;4.10;;;9.20;99.90;;;;;;5078578;28;20442;-73
2024/02/01 03:45:25;;;;;;;6.47;4.00;;;9.10;99.90;;;;;;5068772;28;20529;-71
2024/02/01 03:48:11;;;;;;;5.60;3.60;;;9.10;99.90;;;;;;5069609;28;21144;-73
2024/02/01 03:50:56;;;;;;;11.40;4.93;;;9.00;99.90;;;;;;5072997;28;20459;-73
2024/02/01 03:53:42;;;;;;;10.03;5.47;;;9.00;99.90;;;;;;5080135;28;20477;-73
2024/02/01 03:56:28;;;;;;;7.23;5.00;;;9.00;99.90;;;;;;5072746;28;20971;-73
2024/02/01 03:59:14;;;;;;;9.13;5.53;;;8.90;99.90;;;;;;5066198;28;20489;-73
2024/02/01 04:02:03;;;;;;;8.23;5.80;;;8.90;99.90;;;;;;5075616;28;20955;-73
2024/02/01 04:04:49;;;;;;;8.27;5.80;;;8.80;99.90;;;;;;5075397;28;20444;-72
2024/02/01 04:07:39;;;;;;;6.63;4.90;;;8.80;99.90;;;;;;5068091;28;20587;-73
2024/02/01 04:10:25;;;;;;;10.13;5.80;;;8.80;99.90;;;;;;5064532;28;20472;-73
2024/02/01 04:13:10;;;;;;;7.80;5.97;;;8.70;99.90;;;;;;5074664;28;20563;-73
2024/02/01 04:15:56;;;;;;;11.73;5.83;;;8.70;99.90;;;;;;5068644;28;20579;-73
2024/02/01 04:18:43;;;;;;;7.47;5.00;;;8.60;99.90;;;;;;5075333;28;20445;-73
2024/02/01 04:21:28;;;;;;;9.47;5.97;;;8.60;99.90;;;;;;5064729;28;20446;-73
2024/02/01 04:24:14;;;;;;;8.23;5.63;;;8.60;99.90;;;;;;5080356;28;20441;-72
2024/02/01 04:27:00;;;;;;;8.97;6.67;;;8.50;99.90;;;;;;5069807;28;20814;-73
2024/02/01 04:29:46;;;;;;;8.20;6.17;;;8.50;99.90;;;;;;5083323;28;20484;-73
2024/02/01 04:32:32;;;;;;;9.10;6.40;;;8.50;99.90;;;;;;5086406;28;20467;-73
2024/02/01 04:35:19;;;;;;;6.93;5.37;;;8.40;99.90;;;;;;5073974;28;20450;-73
2024/02/01 04:38:04;;;;;;;7.77;5.10;;;8.40;99.90;;;;;;5073396;28;20557;-73
2024/02/01 04:40:50;;;;;;;10.13;5.43;;;8.40;99.90;;;;;;5077856;28;20956;-73
2024/02/01 04:43:36;;;;;;;8.07;5.60;;;8.30;99.90;;;;;;5074437;28;20446;-73
2024/02/01 04:46:24;;;;;;;8.07;5.40;;;8.40;99.90;;;;;;5075206;28;20748;-73
2024/02/01 04:49:12;;;;;;;14.70;5.77;;;8.40;99.90;;;;;;5078146;28;20516;-72
2024/02/01 04:51:59;;;;;;;8.73;5.73;;;8.40;99.90;;;;;;5077926;28;20519;-73
2024/02/01 04:54:45;;;;;;;9.40;5.30;;;8.30;99.90;;;;;;5078961;28;20440;-73
2024/02/01 04:57:31;;;;;;;7.17;5.70;;;8.30;99.90;;;;;;5061813;28;20516;-73
2024/02/01 05:00:18;;;;;;;8.40;5.30;;;8.30;99.90;;;;;;5071966;28;20487;-72
2024/02/01 05:03:04;;;;;;;8.73;5.40;;;8.20;99.90;;;;;;5077273;28;20437;-73
2024/02/01 05:05:49;;;;;;;10.17;5.20;;;8.20;99.90;;;;;;5079281;28;20452;-72
2024/02/01 05:08:37;;;;;;;6.30;5.07;;;8.20;99.90;;;;;;5079421;28;20448;-73
2024/02/01 05:11:23;;;;;;;9.27;4.67;;;8.30;99.90;;;;;;5065608;28;20507;-72
2024/02/01 05:14:10;;;;;;;8.70;5.47;;;8.20;99.90;;;;;;5072921;28;20468;-73
2024/02/01 05:16:56;;;;;;;5.87;4.37;;;8.20;99.90;;;;;;5071776;28;20460;-73
2024/02/01 05:19:41;;;;;;;6.67;4.90;;;8.30;99.90;;;;;;5079758;28;20473;-75
2024/02/01 05:22:27;;;;;;;5.73;4.40;;;8.20;99.90;;;;;;5085383;28;20488;-73
2024/02/01 05:25:19;;;;;;;6.93;5.30;;;8.20;99.90;;;;;;5073557;28;20441;-72
2024/02/01 05:28:09;;;;;;;7.33;5.23;;;8.20;99.90;;;;;;5080310;28;20453;-73
2024/02/01 05:30:54;;;;;;;12.83;5.23;;;8.20;99.90;;;;;;5082010;28;20474;-73
2024/02/01 05:33:40;;;;;;;6.50;4.70;;;8.20;99.90;;;;;;5083702;28;20475;-73
2024/02/01 05:36:26;;;;;;;8.57;4.73;;;8.20;99.90;;;;;;5075457;28;20779;-73
2024/02/01 05:39:24;;;;;;;8.23;5.53;;;8.30;99.90;;;;;;5065269;28;20489;-73
2024/02/01 05:42:13;;;;;;;6.83;5.03;;;8.30;99.90;;;;;;5067589;28;20493;-72
2024/02/01 05:44:58;;;;;;;6.03;4.50;;;8.30;99.90;;;;;;5075685;28;20480;-73
2024/02/01 05:47:44;;;;;;;6.43;5.20;;;8.30;99.90;;;;;;5084173;28;20688;-73
2024/02/01 05:50:30;;;;;;;9.90;5.23;;;8.30;99.90;;;;;;5080654;28;20543;-72
2024/02/01 05:53:15;;;;;;;8.17;4.80;;;8.20;99.90;;;;;;5076959;28;20478;-73
2024/02/01 05:56:01;;;;;;;6.17;4.60;;;8.20;99.90;;;;;;5070246;28;20531;-73
2024/02/01 05:58:49;;;;;;;8.73;4.80;;;8.20;99.90;;;;;;5082799;28;20990;-73
2024/02/01 06:01:34;;;;;;;5.13;4.27;;;8.20;99.90;;;;;;5082487;28;20449;-73
2024/02/01 06:04:21;;;;;;;7.40;5.13;;;8.20;99.90;;;;;;5068249;28;20459;-72
2024/02/01 06:07:07;;;;;;;7.97;5.33;;;8.20;99.90;;;;;;5062319;28;20475;-73
2024/02/01 06:09:53;;;;;;;6.90;4.53;;;8.20;99.90;;;;;;5079430;28;20464;-72
2024/02/01 06:12:38;;;;;;;6.23;3.70;;;8.20;99.90;;;;;;5080905;28;20454;-72
2024/02/01 06:15:25;;;;;;;5.37;4.77;;;8.30;99.90;;;;;;5077835;28;20548;-71
2024/02/01 06:18:11;;;;;;;6.10;4.30;;;8.30;99.90;;;;;;5073836;28;20449;-73
2024/02/01 06:20:57;;;;;;;7.03;4.40;;;8.30;99.90;;;;;;5065832;28;20441;-73
2024/02/01 06:23:43;;;;;;;6.57;5.87;;;8.30;99.90;;;;;;5075451;28;20520;-73
2024/02/01 06:26:29;;;;;;;5.30;4.77;;;8.30;99.90;;;;;;5071870;28;20829;-72
2024/02/01 06:29:15;;;;;;;10.77;5.57;;;8.20;99.90;;;;;;5080179;28;20498;-73
2024/02/01 06:32:04;;;;;;;6.40;5.80;;;8.30;99.90;;;;;;5062380;28;20815;-72
2024/02/01 06:34:54;;;;;;;8.50;5.67;;;8.40;99.90;;;;;;5078694;28;20485;-73
2024/02/01 06:37:42;;;;;;;7.47;5.60;;;8.40;99.90;;;;;;5079108;28;20456;-73
2024/02/01 06:40:37;;;;;;;9.87;5.57;;;8.40;99.90;;;;;;5075692;28;20550;-73
2024/02/01 06:43:31;;;;;;;6.13;5.03;;;8.40;99.90;;;;;;5075203;28;20546;-72
2024/02/01 06:46:22;;;;;;;15.77;5.30;;;8.50;99.90;;;;;;5064029;28;20425;-71
2024/02/01 06:49:18;;;;;;;6.23;5.03;;;8.40;99.90;;;;;;5065799;28;20482;-73
2024/02/01 06:52:24;;;;;;;12.90;7.50;;;8.40;99.90;;;;;;5082035;28;20452;-73
2024/02/01 06:55:36;;;;;;;11.17;6.63;;;8.50;99.90;;;;;;5071992;28;20495;-73
2024/02/01 06:58:38;;;;;;;9.30;6.43;;;8.40;99.90;;;;;;5078035;28;20448;-72
2024/02/01 07:01:48;;;;;;;6.40;5.60;;;8.40;99.90;;;;;;5063203;28;20450;-73
2024/02/01 07:04:42;;;;;;;7.37;4.40;;;8.50;99.90;;;;;;5076792;28;20491;-72
2024/02/01 07:07:29;;;;;;;7.40;5.77;;;8.60;99.90;;;;;;5076519;28;20489;-73
2024/02/01 07:10:17;;;;;;;10.10;5.70;;;8.50;99.90;;;;;;5070281;28;21024;-73
2024/02/01 07:13:07;;;;;;;7.73;5.50;;;8.50;99.90;;;;;;5073600;28;20552;-73
2024/02/01 07:16:04;;;;;;;8.80;6.60;;;8.50;99.90;;;;;;5069822;28;20442;-73
2024/02/01 07:19:09;;;;;;;5.53;4.57;;;8.50;99.90;;;;;;5075700;28;20536;-73
2024/02/01 07:22:05;;;;;;;7.70;5.90;;;8.50;99.90;;;;;;5076589;28;20444;-73
2024/02/01 07:25:09;;;;;;;8.93;7.40;;;8.50;99.90;;;;;;5060291;28;20441;-73
2024/02/01 07:58:39;;;;;;;6.57;5.70;;;8.70;99.90;;;;;;5071352;28;20436;-73
2024/02/01 08:01:34;;;;;;;8.70;5.37;;;8.70;99.90;;;;;;5068355;28;20416;-72
2024/02/01 08:07:43;;;;;;;6.63;4.87;;;8.70;99.90;;;;;;5085318;28;20459;-73
2024/02/01 08:10:30;;;;;;;5.40;4.73;;;8.70;99.90;;;;;;5075602;28;20465;-73
2024/02/01 08:13:15;;;;;;;6.23;4.17;;;8.70;99.90;;;;;;5071910;28;20585;-72
2024/02/01 08:16:02;;;;;;;5.97;5.10;;;8.70;99.90;;;;;;5083896;28;20439;-73
2024/02/01 08:18:48;;;;;;;13.20;4.57;;;8.70;99.90;;;;;;5078614;28;20463;-73
2024/02/01 08:21:37;;;;;;;5.10;4.60;;;8.80;99.90;;;;;;5075365;28;20449;-73
2024/02/01 08:24:23;;;;;;;4.87;3.70;;;8.80;99.90;;;;;;5073073;28;20411;-73
2024/02/01 08:27:14;;;;;;;5.63;4.10;;;8.90;99.90;;;;;;5083843;28;20453;-73
2024/02/01 08:30:12;;;;;;;6.53;4.20;;;8.80;99.90;;;;;;5075955;28;20811;-73
2024/02/01 08:33:03;;;;;;;5.73;4.70;;;8.80;99.90;;;;;;5067283;28;20823;-73
2024/02/01 08:35:49;;;;;;;6.10;4.97;;;8.80;99.90;;;;;;5067623;28;20454;-73
2024/02/01 08:38:34;;;;;;;5.20;4.40;;;8.90;99.90;;;;;;5072559;28;20449;-73
2024/02/01 08:41:21;;;;;;;8.27;4.60;;;8.80;99.90;;;;;;5077600;28;21059;-73
2024/02/01 08:44:08;;;;;;;7.90;5.20;;;8.80;99.90;;;;;;5078859;28;21047;-73
2024/02/01 08:46:54;;;;;;;6.53;4.10;;;8.80;99.90;;;;;;5075890;28;20777;-73
2024/02/01 08:49:39;;;;;;;4.97;4.43;;;8.80;99.90;;;;;;5072929;28;20473;-72
2024/02/01 08:52:25;;;;;;;8.77;4.30;;;8.90;99.90;;;;;;5076812;28;20450;-73
2024/02/01 08:55:11;;;;;;;5.10;4.60;;;8.90;99.90;;;;;;5087700;28;20466;-73
2024/02/01 08:58:08;;;;;;;7.70;4.20;;;8.90;99.90;;;;;;5086189;28;20468;-73
2024/02/01 09:00:55;;;;;;;8.13;7.00;;;8.90;99.90;;;;;;5075190;28;21020;-73
2024/02/01 09:03:40;;;;;;;7.70;6.67;;;8.90;99.90;;;;;;5065418;28;20420;-73
2024/02/01 09:06:26;;;;;;;14.23;9.40;;;8.90;99.90;;;;;;5078269;28;21148;-73
2024/02/01 09:09:28;;;;;;;10.70;9.30;;;8.80;99.90;;;;;;5078255;28;20473;-73
2024/02/01 09:12:16;;;;;;;7.70;6.90;;;8.90;99.90;;;;;;5080497;28;20448;-73
2024/02/01 09:15:01;;;;;;;9.60;7.73;;;8.80;99.90;;;;;;5075010;28;20607;-73
2024/02/01 09:17:48;;;;;;;6.37;5.67;;;8.90;99.90;;;;;;5071940;28;20973;-73
2024/02/01 09:20:34;;;;;;;6.87;5.57;;;8.90;99.90;;;;;;5077140;28;20530;-73
2024/02/01 09:23:22;;;;;;;6.93;5.63;;;8.90;99.90;;;;;;5076267;28;20495;-73
2024/02/01 09:26:08;;;;;;;8.47;5.73;;;8.90;99.90;;;;;;5076433;28;20807;-73
2024/02/01 09:28:54;;;;;;;8.20;6.93;;;8.90;99.90;;;;;;5072115;28;21003;-73
2024/02/01 09:31:40;;;;;;;8.83;6.97;;;8.90;99.90;;;;;;5078197;28;20541;-73
2024/02/01 09:34:27;;;;;;;14.10;6.70;;;9.00;99.90;;;;;;5070293;28;20547;-73
2024/02/01 09:37:22;;;;;;;9.63;8.53;;;9.00;99.90;;;;;;5078192;28;20832;-73
2024/02/01 09:40:10;;;;;;;11.63;9.10;;;9.00;99.90;;;;;;5078561;28;20475;-73
2024/02/01 09:42:56;;;;;;;11.40;8.03;;;9.00;99.90;;;;;;5074319;28;20571;-73
2024/02/01 09:45:42;;;;;;;10.47;8.47;;;9.00;99.90;;;;;;5065435;28;21098;-73
2024/02/01 09:48:28;;;;;;;8.63;7.83;;;9.00;99.90;;;;;;5068328;28;20426;-73
2024/02/01 09:51:18;;;;;;;17.43;7.80;;;9.10;99.90;;;;;;5075588;28;20454;-73
2024/02/01 09:54:10;;;;;;;8.57;6.80;;;9.10;99.90;;;;;;5071748;28;20465;-73
2024/02/01 09:56:57;;;;;;;9.43;8.07;;;9.10;99.90;;;;;;5072710;28;20427;-73
2024/02/01 09:59:43;;;;;;;10.43;8.30;;;9.10;99.90;;;;;;5075943;28;20456;-73
2024/02/01 10:02:30;;;;;;;9.70;8.03;;;9.10;99.90;;;;;;5073126;28;20449;-73
2024/02/01 10:05:17;;;;;;;11.83;9.47;;;9.20;99.90;;;;;;5071787;28;20956;-72
2024/02/01 10:08:12;;;;;;;9.60;8.57;;;9.20;99.90;;;;;;5068949;28;20448;-72
2024/02/01 10:10:57;;;;;;;9.30;8.13;;;9.20;99.90;;;;;;5081256;28;20422;-73
2024/02/01 10:13:43;;;;;;;10.73;9.73;;;9.30;99.90;;;;;;5082312;28;20581;-73
2024/02/01 10:16:35;;;;;;;14.23;9.00;;;9.30;99.90;;;;;;5069529;28;20805;-75
2024/02/01 10:19:21;;;;;;;10.00;9.00;;;9.40;99.90;;;;;;5070126;28;20527;-73
2024/02/01 10:22:08;;;;;;;18.83;10.20;;;9.40;99.90;;;;;;5073682;28;20805;-72
2024/02/01 10:24:58;;;;;;;12.73;10.67;;;9.40;99.90;;;;;;5072544;28;20444;-73
2024/02/01 10:27:43;;;;;;;12.47;10.03;;;9.40;99.90;;;;;;5075386;28;20457;-73
2024/02/01 10:30:30;;;;;;;11.13;9.93;;;9.50;99.90;;;;;;5069471;28;20492;-73
2024/02/01 10:33:17;;;;;;;14.00;8.87;;;9.40;99.90;;;;;;5073356;28;21065;-73
2024/02/01 10:36:08;;;;;;;14.43;9.13;;;9.50;99.90;;;;;;5069646;28;20451;-73
2024/02/01 10:38:58;;;;;;;11.47;10.37;;;9.50;99.90;;;;;;5080125;28;20834;-73
2024/02/01 10:41:54;;;;;;;10.27;9.27;;;9.50;99.90;;;;;;5077024;28;20415;-73
2024/02/01 10:44:42;;;;;;;11.27;10.13;;;9.50;99.90;;;;;;5073494;28;20420;-73
2024/02/01 10:47:32;;;;;;;13.13;10.50;;;9.60;99.90;;;;;;5072836;28;20968;-73
2024/02/01 10:50:19;;;;;;;11.97;9.00;;;9.60;99.90;;;;;;5073472;28;20476;-73
2024/02/01 10:53:07;;;;;;;12.80;10.10;;;9.60;99.90;;;;;;5081124;28;20452;-73
2024/02/01 10:55:53;;;;;;;9.50;8.50;;;9.60;99.90;;;;;;5070360;28;20469;-73
2024/02/01 10:58:43;;;;;;;9.83;8.83;;;9.70;99.90;;;;;;5068170;28;20450;-73
2024/02/01 11:01:29;;;;;;;10.60;9.43;;;9.70;99.90;;;;;;5072417;28;20449;-74
2024/02/01 11:04:15;;;;;;;10.70;8.60;;;9.70;99.90;;;;;;5074907;28;20520;-73
2024/02/01 11:07:01;;;;;;;13.70;8.80;;;9.70;99.90;;;;;;5073249;28;20593;-73
2024/02/01 11:09:49;;;;;;;11.17;7.83;;;9.70;99.90;;;;;;5075812;28;20917;-73
2024/02/01 11:12:39;;;;;;;11.40;9.77;;;9.80;99.90;;;;;;5072782;28;20461;-74
2024/02/01 11:15:26;;;;;;;9.50;8.40;;;9.80;99.90;;;;;;5065749;28;20604;-73
2024/02/01 11:18:12;;;;;;;13.13;9.80;;;9.90;99.90;;;;;;5067760;28;20428;-72
2024/02/01 11:21:03;;;;;;;12.03;9.27;;;9.90;99.90;;;;;;5073679;28;20446;-73
2024/02/01 11:23:49;;;;;;;10.20;9.10;;;9.90;99.90;;;;;;5085812;28;20407;-73
2024/02/01 11:26:40;;;;;;;11.20;9.40;;;9.90;99.90;;;;;;5083893;28;20489;-73
2024/02/01 11:29:27;;;;;;;11.60;9.20;;;9.90;99.90;;;;;;5085904;28;20868;-73
2024/02/01 11:32:18;;;;;;;10.20;9.07;;;9.90;99.90;;;;;;5087285;28;20562;-73
2024/02/01 11:35:05;;;;;;;11.07;8.80;;;9.90;99.90;;;;;;5088424;28;20467;-73
2024/02/01 11:38:00;;;;;;;35.97;19.90;;;9.80;99.90;;;;;;5089484;28;20506;-73
2024/02/01 11:40:46;;;;;;;37.07;18.70;;;9.70;99.90;;;;;;5084470;28;20472;-73
2024/02/01 11:43:33;;;;;;;25.60;15.83;;;9.70;99.90;;;;;;5086446;28;20436;-73
2024/02/01 11:46:18;;;;;;;18.47;12.77;;;9.70;99.90;;;;;;5088019;28;20444;-73
2024/02/01 11:49:05;;;;;;;18.40;13.00;;;9.80;99.90;;;;;;5077896;28;20591;-73
2024/02/01 11:51:56;;;;;;;39.90;20.60;;;9.70;99.90;;;;;;5088771;28;20425;-73
2024/02/01 11:54:45;;;;;;;51.43;25.00;;;9.80;99.90;;;;;;5084559;28;20580;-73
2024/02/01 11:57:32;;;;;;;42.20;22.43;;;9.80;99.90;;;;;;5085259;28;20437;-73
2024/02/01 12:00:20;;;;;;;32.90;17.80;;;9.80;99.90;;;;;;5088123;28;20602;-73
2024/02/01 12:03:06;;;;;;;35.20;17.63;;;9.90;99.90;;;;;;5078674;28;20483;-73
2024/02/01 12:05:54;;;;;;;21.80;12.63;;;9.90;99.90;;;;;;5089466;28;20416;-73
2024/02/01 12:08:39;;;;;;;15.13;10.50;;;9.90;99.90;;;;;;5088316;28;20431;-73
2024/02/01 12:11:28;;;;;;;13.20;10.50;;;10.00;99.90;;;;;;5087476;28;20515;-73
2024/02/01 12:14:21;;;;;;;11.93;10.20;;;10.00;99.90;;;;;;5084342;28;20884;-73
2024/02/01 12:17:07;;;;;;;12.47;10.67;;;10.10;99.90;;;;;;5078690;28;20425;-73
2024/02/01 12:19:52;;;;;;;12.50;9.27;;;10.20;99.90;;;;;;5089641;28;20490;-73
2024/02/01 12:22:40;;;;;;;12.00;10.67;;;10.20;99.90;;;;;;5089098;28;20434;-73
2024/02/01 12:25:30;;;;;;;11.10;9.83;;;10.30;99.90;;;;;;5080484;28;20408;-73
2024/02/01 12:28:17;;;;;;;11.43;9.77;;;10.30;99.90;;;;;;5087080;28;20420;-73
2024/02/01 12:31:04;;;;;;;12.87;10.37;;;10.30;99.90;;;;;;5088652;28;20424;-73
2024/02/01 12:33:50;;;;;;;12.00;9.57;;;10.30;99.90;;;;;;5089675;28;20398;-73
2024/02/01 12:36:37;;;;;;;10.80;8.30;;;10.30;99.90;;;;;;5088524;28;20429;-73
2024/02/01 12:39:24;;;;;;;9.33;8.30;;;10.40;99.90;;;;;;5088957;28;20456;-73
2024/02/01 12:42:14;;;;;;;10.60;8.50;;;10.40;99.90;;;;;;5078901;28;20410;-73
2024/02/01 12:44:59;;;;;;;7.90;6.83;;;10.40;99.90;;;;;;5090460;28;20425;-73
2024/02/01 12:47:48;;;;;;;9.37;6.80;;;10.20;99.90;;;;;;5092816;28;20938;-73
2024/02/01 12:50:39;;;;;;;7.87;6.10;;;10.30;99.90;;;;;;5078596;28;20493;-73
2024/02/01 12:53:24;;;;;;;8.30;6.53;;;10.30;99.90;;;;;;5074134;28;20815;-73
2024/02/01 12:56:11;;;;;;;8.10;6.70;;;10.30;99.90;;;;;;5082550;28;20487;-73
2024/02/01 12:58:57;;;;;;;9.20;6.70;;;10.30;99.90;;;;;;5078983;28;20442;-73
2024/02/01 13:01:42;;;;;;;8.20;6.23;;;10.30;99.90;;;;;;5069802;28;20429;-73
2024/02/01 13:04:27;;;;;;;6.77;6.07;;;10.40;99.90;;;;;;5069114;28;20423;-73
2024/02/01 13:07:14;;;;;;;10.47;6.47;;;10.50;99.90;;;;;;5064963;28;20457;-73
2024/02/01 13:10:05;;;;;;;8.77;6.43;;;10.70;99.90;;;;;;5063020;28;20433;-73
2024/02/01 13:13:00;;;;;;;7.73;5.07;;;11.60;99.90;;;;;;5069231;28;20428;-73
2024/02/01 13:15:47;;;;;;;6.57;4.97;;;12.60;99.90;;;;;;5073865;28;20480;-74
2024/02/01 13:18:32;;;;;;;6.63;3.70;;;13.50;99.90;;;;;;5068625;28;20548;-73
2024/02/01 13:21:18;;;;;;;4.80;3.30;;;14.20;99.90;;;;;;5063055;28;20796;-74
2024/02/01 13:24:05;;;;;;;6.17;3.97;;;14.50;99.90;;;;;;5068744;28;20438;-74
2024/02/01 13:26:50;;;;;;;6.23;3.40;;;14.50;99.90;;;;;;5065498;28;20558;-73
2024/02/01 13:29:37;;;;;;;4.67;3.60;;;14.60;99.90;;;;;;5070652;28;20547;-74
2024/02/01 13:32:23;;;;;;;8.90;4.70;;;14.30;99.90;;;;;;5061956;28;20443;-73
2024/02/01 13:35:09;;;;;;;6.57;3.97;;;14.20;99.90;;;;;;5064575;28;20473;-74
2024/02/01 13:37:55;;;;;;;6.50;4.30;;;14.10;99.90;;;;;;5070996;28;20431;-73
2024/02/01 13:40:44;;;;;;;7.50;2.47;;;13.70;99.90;;;;;;5068489;28;20500;-73
2024/02/01 13:43:29;;;;;;;5.43;3.17;;;13.50;99.90;;;;;;5061888;28;20493;-73
2024/02/01 13:46:16;;;;;;;6.23;2.97;;;13.30;99.90;;;;;;5068678;28;20442;-74
2024/02/01 13:49:03;;;;;;;5.90;3.77;;;13.20;99.90;;;;;;5064604;28;20502;-75
2024/02/01 13:51:48;;;;;;;5.07;2.87;;;12.90;99.90;;;;;;5069488;28;20453;-73
2024/02/01 13:54:34;;;;;;;5.87;3.40;;;12.60;99.90;;;;;;5074611;28;20973;-73
2024/02/01 13:57:20;;;;;;;5.63;3.53;;;12.40;99.90;;;;;;5067075;28;20445;-73
2024/02/01 14:00:14;;;;;;;6.10;3.57;;;12.10;99.90;;;;;;5069750;28;21020;-73
2024/02/01 14:03:02;;;;;;;9.60;3.53;;;12.10;99.90;;;;;;5077012;28;20577;-73
2024/02/01 14:05:47;;;;;;;5.40;3.40;;;12.10;99.90;;;;;;5077003;28;20520;-73
2024/02/01 14:08:33;;;;;;;4.43;3.50;;;12.20;99.90;;;;;;5070683;28;20475;-73
2024/02/01 14:11:19;;;;;;;9.70;3.37;;;12.30;99.90;;;;;;5066855;28;20948;-73
2024/02/01 14:14:05;;;;;;;7.63;3.27;;;12.40;99.90;;;;;;5073765;28;20435;-73
2024/02/01 14:16:51;;;;;;;7.10;3.50;;;12.60;99.90;;;;;;5066956;28;21063;-73
2024/02/01 14:19:38;;;;;;;8.03;3.67;;;12.60;99.90;;;;;;5062916;28;20466;-73
2024/02/01 14:22:25;;;;;;;6.20;3.40;;;12.50;99.90;;;;;;5063356;28;20437;-73
2024/02/01 14:25:11;;;;;;;11.13;3.80;;;12.20;99.90;;;;;;5075215;28;20466;-73
2024/02/01 14:27:57;;;;;;;8.77;4.73;;;12.00;99.90;;;;;;5075450;28;20424;-74
2024/02/01 14:30:42;;;;;;;8.07;4.30;;;11.80;99.90;;;;;;5066420;28;20481;-73
2024/02/01 14:33:28;;;;;;;14.00;4.00;;;11.60;99.90;;;;;;5071707;28;20544;-73
2024/02/01 14:36:15;;;;;;;6.60;3.60;;;11.40;99.90;;;;;;5070549;28;20495;-73
2024/02/01 14:39:20;;;;;;;9.90;4.30;;;11.20;99.90;;;;;;5072046;28;20807;-73
2024/02/01 14:42:06;;;;;;;9.63;5.53;;;11.10;99.90;;;;;;5068400;28;20450;-73
2024/02/01 14:44:52;;;;;;;6.03;4.13;;;11.00;99.90;;;;;;5073569;28;20502;-73
2024/02/01 14:47:39;;;;;;;8.07;4.43;;;10.90;99.90;;;;;;5075607;28;21011;-73
2024/02/01 14:50:25;;;;;;;5.87;3.70;;;10.80;99.90;;;;;;5070605;28;20583;-73
2024/02/01 14:53:12;;;;;;;5.63;3.80;;;10.70;99.90;;;;;;5059732;28;20429;-73
2024/02/01 14:55:57;;;;;;;6.53;4.27;;;10.60;99.90;;;;;;5073114;28;20518;-72
2024/02/01 14:58:43;;;;;;;5.33;3.13;;;10.50;99.90;;;;;;5074202;28;20490;-73
2024/02/01 15:01:28;;;;;;;6.20;3.90;;;10.40;99.90;;;;;;5077089;28;20952;-74
2024/02/01 15:04:14;;;;;;;8.00;3.50;;;10.40;99.90;;;;;;5079408;28;20580;-73
2024/02/01 15:07:00;;;;;;;8.27;3.57;;;10.30;99.90;;;;;;5079251;28;20438;-73
2024/02/01 15:09:47;;;;;;;6.00;4.30;;;10.20;99.90;;;;;;5073262;28;20550;-73